sensor_id;sensor_type;location;lat;lon;timestamp;temperature;humidity
6102;DHT22;3081;50.584;7.032;2023-05-14T00:00:27;11.00;99.90
6102;DHT22;3081;50.584;7.032;2023-05-14T00:02:56;10.90;99.90
6102;DHT22;3081;50.584;7.032;2023-05-14T00:05:23;10.80;99.90
6102;DHT22;3081;50.584;7.032;2023-05-14T00:07:50;10.80;99.90
6102;DHT22;3081;50.584;7.032;2023-05-14T00:10:17;10.80;99.90
6102;DHT22;3081;50.584;7.032;2023-05-14T00:12:45;10.70;99.90
6102;DHT22;3081;50.584;7.032;2023-05-14T00:15:12;10.60;99.90
6102;DHT22;3081;50.584;7.032;2023-05-14T00:17:38;10.50;99.90
6102;DHT22;3081;50.584;7.032;2023-05-14T00:20:09;10.50;99.90
6102;DHT22;3081;50.584;7.032;2023-05-14T00:22:37;10.50;99.90
6102;DHT22;3081;50.584;7.032;2023-05-14T00:25:06;10.50;99.90
6102;DHT22;3081;50.584;7.032;2023-05-14T00:27:34;10.50;99.90
6102;DHT22;3081;50.584;7.032;2023-05-14T00:30:03;10.50;99.90
6102;DHT22;3081;50.584;7.032;2023-05-14T00:32:31;10.50;99.90
6102;DHT22;3081;50.584;7.032;2023-05-14T00:34:58;10.50;99.90
6102;DHT22;3081;50.584;7.032;2023-05-14T00:37:26;10.50;99.90
6102;DHT22;3081;50.584;7.032;2023-05-14T00:39:53;10.50;99.90
6102;DHT22;3081;50.584;7.032;2023-05-14T00:42:20;10.50;99.90
6102;DHT22;3081;50.584;7.032;2023-05-14T00:44:47;10.50;99.90
6102;DHT22;3081;50.584;7.032;2023-05-14T00:47:14;10.50;99.90
6102;DHT22;3081;50.584;7.032;2023-05-14T00:49:41;10.50;99.90
6102;DHT22;3081;50.584;7.032;2023-05-14T00:52:09;10.50;99.90
6102;DHT22;3081;50.584;7.032;2023-05-14T00:54:38;10.50;99.90
6102;DHT22;3081;50.584;7.032;2023-05-14T00:57:06;10.50;99.90
6102;DHT22;3081;50.584;7.032;2023-05-14T00:59:33;10.50;99.90
6102;DHT22;3081;50.584;7.032;2023-05-14T01:02:00;10.50;99.90
6102;DHT22;3081;50.584;7.032;2023-05-14T01:04:27;10.50;99.90
6102;DHT22;3081;50.584;7.032;2023-05-14T01:07:02;10.40;99.90
6102;DHT22;3081;50.584;7.032;2023-05-14T01:09:35;10.40;99.90
6102;DHT22;3081;50.584;7.032;2023-05-14T01:12:10;10.30;99.90
6102;DHT22;3081;50.584;7.032;2023-05-14T01:14:46;10.20;99.90
6102;DHT22;3081;50.584;7.032;2023-05-14T01:17:18;10.20;99.90
6102;DHT22;3081;50.584;7.032;2023-05-14T01:19:46;10.20;99.90
6102;DHT22;3081;50.584;7.032;2023-05-14T01:22:15;10.20;99.90
6102;DHT22;3081;50.584;7.032;2023-05-14T01:24:42;10.20;99.90
6102;DHT22;3081;50.584;7.032;2023-05-14T01:27:13;10.20;99.90
6102;DHT22;3081;50.584;7.032;2023-05-14T01:29:44;10.20;99.90
6102;DHT22;3081;50.584;7.032;2023-05-14T01:32:12;10.20;99.90
6102;DHT22;3081;50.584;7.032;2023-05-14T01:34:40;10.20;99.90
6102;DHT22;3081;50.584;7.032;2023-05-14T01:37:10;10.20;99.90
6102;DHT22;3081;50.584;7.032;2023-05-14T01:39:39;10.20;99.90
6102;DHT22;3081;50.584;7.032;2023-05-14T01:42:07;10.10;99.90
6102;DHT22;3081;50.584;7.032;2023-05-14T01:44:34;10.10;99.90
6102;DHT22;3081;50.584;7.032;2023-05-14T01:47:02;10.00;99.90
6102;DHT22;3081;50.584;7.032;2023-05-14T01:49:29;10.00;99.90
6102;DHT22;3081;50.584;7.032;2023-05-14T01:51:57;10.00;99.90
6102;DHT22;3081;50.584;7.032;2023-05-14T01:54:24;10.00;99.90
6102;DHT22;3081;50.584;7.032;2023-05-14T01:56:52;10.00;99.90
6102;DHT22;3081;50.584;7.032;2023-05-14T01:59:19;9.90;99.90
6102;DHT22;3081;50.584;7.032;2023-05-14T02:01:46;9.90;99.90
6102;DHT22;3081;50.584;7.032;2023-05-14T02:04:12;9.90;99.90
6102;DHT22;3081;50.584;7.032;2023-05-14T02:06:40;9.80;99.90
6102;DHT22;3081;50.584;7.032;2023-05-14T02:09:06;9.80;99.90
6102;DHT22;3081;50.584;7.032;2023-05-14T02:11:33;9.70;99.90
6102;DHT22;3081;50.584;7.032;2023-05-14T02:14:02;9.80;99.90
6102;DHT22;3081;50.584;7.032;2023-05-14T02:16:28;9.70;99.90
6102;DHT22;3081;50.584;7.032;2023-05-14T02:18:55;9.60;99.90
6102;DHT22;3081;50.584;7.032;2023-05-14T02:21:22;9.60;99.90
6102;DHT22;3081;50.584;7.032;2023-05-14T02:23:49;9.50;99.90
6102;DHT22;3081;50.584;7.032;2023-05-14T02:26:16;9.40;99.90
6102;DHT22;3081;50.584;7.032;2023-05-14T02:28:43;9.40;99.90
6102;DHT22;3081;50.584;7.032;2023-05-14T02:31:12;9.40;99.90
6102;DHT22;3081;50.584;7.032;2023-05-14T02:33:38;9.30;99.90
6102;DHT22;3081;50.584;7.032;2023-05-14T02:36:06;9.30;99.90
6102;DHT22;3081;50.584;7.032;2023-05-14T02:38:33;9.30;99.90
6102;DHT22;3081;50.584;7.032;2023-05-14T02:41:00;9.40;99.90
6102;DHT22;3081;50.584;7.032;2023-05-14T02:43:26;9.50;99.90
6102;DHT22;3081;50.584;7.032;2023-05-14T02:45:53;9.50;99.90
6102;DHT22;3081;50.584;7.032;2023-05-14T02:48:22;9.50;99.90
6102;DHT22;3081;50.584;7.032;2023-05-14T02:50:49;9.50;99.90
6102;DHT22;3081;50.584;7.032;2023-05-14T02:53:16;9.50;99.90
6102;DHT22;3081;50.584;7.032;2023-05-14T02:55:42;9.40;99.90
6102;DHT22;3081;50.584;7.032;2023-05-14T02:58:09;9.30;99.90
6102;DHT22;3081;50.584;7.032;2023-05-14T03:00:36;9.30;99.90
6102;DHT22;3081;50.584;7.032;2023-05-14T03:03:03;9.20;99.90
6102;DHT22;3081;50.584;7.032;2023-05-14T03:05:31;9.20;99.90
6102;DHT22;3081;50.584;7.032;2023-05-14T03:07:58;9.20;99.90
6102;DHT22;3081;50.584;7.032;2023-05-14T03:10:25;9.20;99.90
6102;DHT22;3081;50.584;7.032;2023-05-14T03:12:52;9.20;99.90
6102;DHT22;3081;50.584;7.032;2023-05-14T03:15:19;9.20;99.90
6102;DHT22;3081;50.584;7.032;2023-05-14T03:17:46;9.10;99.90
6102;DHT22;3081;50.584;7.032;2023-05-14T03:20:14;9.10;99.90
6102;DHT22;3081;50.584;7.032;2023-05-14T03:22:42;9.00;99.90
6102;DHT22;3081;50.584;7.032;2023-05-14T03:25:09;8.90;99.90
6102;DHT22;3081;50.584;7.032;2023-05-14T03:27:36;8.80;99.90
6102;DHT22;3081;50.584;7.032;2023-05-14T03:30:04;8.80;99.90
6102;DHT22;3081;50.584;7.032;2023-05-14T03:32:31;8.80;99.90
6102;DHT22;3081;50.584;7.032;2023-05-14T03:34:58;8.80;99.90
6102;DHT22;3081;50.584;7.032;2023-05-14T03:37:25;8.80;99.90
6102;DHT22;3081;50.584;7.032;2023-05-14T03:39:53;9.80;99.90
6102;DHT22;3081;50.584;7.032;2023-05-14T03:42:20;8.80;99.90
6102;DHT22;3081;50.584;7.032;2023-05-14T03:44:47;8.80;99.90
6102;DHT22;3081;50.584;7.032;2023-05-14T03:47:14;8.80;99.90
6102;DHT22;3081;50.584;7.032;2023-05-14T03:49:41;8.80;99.90
6102;DHT22;3081;50.584;7.032;2023-05-14T03:52:08;8.80;99.90
6102;DHT22;3081;50.584;7.032;2023-05-14T03:54:35;8.80;99.90
6102;DHT22;3081;50.584;7.032;2023-05-14T03:57:04;8.80;99.90
6102;DHT22;3081;50.584;7.032;2023-05-14T03:59:31;8.80;99.90
6102;DHT22;3081;50.584;7.032;2023-05-14T04:01:58;8.80;99.90
6102;DHT22;3081;50.584;7.032;2023-05-14T04:04:25;8.80;99.90
6102;DHT22;3081;50.584;7.032;2023-05-14T04:06:52;8.80;99.90
6102;DHT22;3081;50.584;7.032;2023-05-14T04:09:19;8.80;99.90
6102;DHT22;3081;50.584;7.032;2023-05-14T04:11:45;8.90;99.90
6102;DHT22;3081;50.584;7.032;2023-05-14T04:14:14;8.90;99.90
6102;DHT22;3081;50.584;7.032;2023-05-14T04:16:41;9.00;99.90
6102;DHT22;3081;50.584;7.032;2023-05-14T04:19:07;9.00;99.90
6102;DHT22;3081;50.584;7.032;2023-05-14T04:21:34;9.00;99.90
6102;DHT22;3081;50.584;7.032;2023-05-14T04:24:01;9.10;99.90
6102;DHT22;3081;50.584;7.032;2023-05-14T04:26:28;9.10;99.90
6102;DHT22;3081;50.584;7.032;2023-05-14T04:28:55;9.20;99.90
6102;DHT22;3081;50.584;7.032;2023-05-14T04:31:24;9.20;99.90
6102;DHT22;3081;50.584;7.032;2023-05-14T04:33:51;9.20;99.90
6102;DHT22;3081;50.584;7.032;2023-05-14T04:36:18;9.20;99.90
6102;DHT22;3081;50.584;7.032;2023-05-14T04:38:45;9.20;99.90
6102;DHT22;3081;50.584;7.032;2023-05-14T04:41:12;9.30;99.90
6102;DHT22;3081;50.584;7.032;2023-05-14T04:43:39;9.30;99.90
6102;DHT22;3081;50.584;7.032;2023-05-14T04:46:05;9.30;99.90
6102;DHT22;3081;50.584;7.032;2023-05-14T04:48:35;9.40;99.90
6102;DHT22;3081;50.584;7.032;2023-05-14T04:51:02;9.50;99.90
6102;DHT22;3081;50.584;7.032;2023-05-14T04:53:29;9.50;99.90
6102;DHT22;3081;50.584;7.032;2023-05-14T04:55:55;9.60;99.90
6102;DHT22;3081;50.584;7.032;2023-05-14T04:58:22;9.70;99.90
6102;DHT22;3081;50.584;7.032;2023-05-14T05:00:49;9.80;99.90
6102;DHT22;3081;50.584;7.032;2023-05-14T05:03:16;9.90;99.90
6102;DHT22;3081;50.584;7.032;2023-05-14T05:05:44;10.00;99.90
6102;DHT22;3081;50.584;7.032;2023-05-14T05:08:11;10.10;99.90
6102;DHT22;3081;50.584;7.032;2023-05-14T05:10:38;10.30;99.90
6102;DHT22;3081;50.584;7.032;2023-05-14T05:13:05;10.40;99.90
6102;DHT22;3081;50.584;7.032;2023-05-14T05:15:32;10.60;99.90
6102;DHT22;3081;50.584;7.032;2023-05-14T05:17:59;10.70;99.90
6102;DHT22;3081;50.584;7.032;2023-05-14T05:20:26;10.80;99.90
6102;DHT22;3081;50.584;7.032;2023-05-14T05:22:55;11.00;99.90
6102;DHT22;3081;50.584;7.032;2023-05-14T05:25:21;11.20;99.90
6102;DHT22;3081;50.584;7.032;2023-05-14T05:27:48;11.30;99.90
6102;DHT22;3081;50.584;7.032;2023-05-14T05:30:15;11.50;99.90
6102;DHT22;3081;50.584;7.032;2023-05-14T05:32:42;11.60;99.90
6102;DHT22;3081;50.584;7.032;2023-05-14T05:35:09;11.70;99.90
6102;DHT22;3081;50.584;7.032;2023-05-14T05:37:36;11.80;99.90
6102;DHT22;3081;50.584;7.032;2023-05-14T05:40:06;12.00;99.90
6102;DHT22;3081;50.584;7.032;2023-05-14T05:42:33;12.20;99.90
6102;DHT22;3081;50.584;7.032;2023-05-14T05:45:00;12.20;99.90
6102;DHT22;3081;50.584;7.032;2023-05-14T05:47:27;12.30;99.90
6102;DHT22;3081;50.584;7.032;2023-05-14T05:49:54;12.50;99.90
6102;DHT22;3081;50.584;7.032;2023-05-14T05:52:21;12.60;99.90
6102;DHT22;3081;50.584;7.032;2023-05-14T05:54:48;12.70;99.90
6102;DHT22;3081;50.584;7.032;2023-05-14T05:57:16;12.80;99.90
6102;DHT22;3081;50.584;7.032;2023-05-14T05:59:43;12.90;99.90
6102;DHT22;3081;50.584;7.032;2023-05-14T06:02:10;12.90;99.90
6102;DHT22;3081;50.584;7.032;2023-05-14T06:04:37;13.10;99.90
6102;DHT22;3081;50.584;7.032;2023-05-14T06:07:04;13.10;99.90
6102;DHT22;3081;50.584;7.032;2023-05-14T06:09:31;13.20;99.90
6102;DHT22;3081;50.584;7.032;2023-05-14T06:11:58;13.30;99.90
6102;DHT22;3081;50.584;7.032;2023-05-14T06:14:26;13.40;99.90
6102;DHT22;3081;50.584;7.032;2023-05-14T06:16:53;13.50;99.90
6102;DHT22;3081;50.584;7.032;2023-05-14T06:19:20;13.60;99.90
6102;DHT22;3081;50.584;7.032;2023-05-14T06:21:47;13.60;99.90
6102;DHT22;3081;50.584;7.032;2023-05-14T06:24:14;13.70;99.90
6102;DHT22;3081;50.584;7.032;2023-05-14T06:26:41;13.80;99.90
6102;DHT22;3081;50.584;7.032;2023-05-14T06:29:07;13.90;99.90
6102;DHT22;3081;50.584;7.032;2023-05-14T06:31:36;14.00;99.90
6102;DHT22;3081;50.584;7.032;2023-05-14T06:34:03;14.00;99.90
6102;DHT22;3081;50.584;7.032;2023-05-14T06:36:30;14.10;99.90
6102;DHT22;3081;50.584;7.032;2023-05-14T06:38:58;14.10;99.90
6102;DHT22;3081;50.584;7.032;2023-05-14T06:41:25;14.10;99.90
6102;DHT22;3081;50.584;7.032;2023-05-14T06:43:52;14.30;99.90
6102;DHT22;3081;50.584;7.032;2023-05-14T06:46:20;14.40;99.90
6102;DHT22;3081;50.584;7.032;2023-05-14T06:48:48;14.50;99.90
6102;DHT22;3081;50.584;7.032;2023-05-14T06:51:15;14.60;99.90
6102;DHT22;3081;50.584;7.032;2023-05-14T06:53:42;14.60;99.90
6102;DHT22;3081;50.584;7.032;2023-05-14T06:56:09;14.80;99.90
6102;DHT22;3081;50.584;7.032;2023-05-14T06:58:35;14.80;99.90
6102;DHT22;3081;50.584;7.032;2023-05-14T07:01:03;14.90;99.90
6102;DHT22;3081;50.584;7.032;2023-05-14T07:03:31;15.00;99.90
6102;DHT22;3081;50.584;7.032;2023-05-14T07:05:59;15.00;99.90
6102;DHT22;3081;50.584;7.032;2023-05-14T07:08:26;15.10;99.90
6102;DHT22;3081;50.584;7.032;2023-05-14T07:10:53;15.10;99.90
6102;DHT22;3081;50.584;7.032;2023-05-14T07:13:21;15.10;99.90
6102;DHT22;3081;50.584;7.032;2023-05-14T07:15:48;15.20;99.90
6102;DHT22;3081;50.584;7.032;2023-05-14T07:18:15;15.10;99.90
6102;DHT22;3081;50.584;7.032;2023-05-14T07:20:42;15.10;99.90
6102;DHT22;3081;50.584;7.032;2023-05-14T07:23:10;15.10;99.90
6102;DHT22;3081;50.584;7.032;2023-05-14T07:25:37;15.20;99.90
6102;DHT22;3081;50.584;7.032;2023-05-14T07:28:04;15.20;99.90
6102;DHT22;3081;50.584;7.032;2023-05-14T07:30:31;15.20;99.90
6102;DHT22;3081;50.584;7.032;2023-05-14T07:32:58;15.30;99.90
6102;DHT22;3081;50.584;7.032;2023-05-14T07:35:25;15.40;99.90
6102;DHT22;3081;50.584;7.032;2023-05-14T07:37:52;15.60;99.90
6102;DHT22;3081;50.584;7.032;2023-05-14T07:40:20;15.60;99.90
6102;DHT22;3081;50.584;7.032;2023-05-14T07:42:49;15.70;99.90
6102;DHT22;3081;50.584;7.032;2023-05-14T07:45:16;15.70;99.90
6102;DHT22;3081;50.584;7.032;2023-05-14T07:47:43;15.70;99.90
6102;DHT22;3081;50.584;7.032;2023-05-14T07:50:10;15.80;99.90
6102;DHT22;3081;50.584;7.032;2023-05-14T07:52:37;15.80;99.90
6102;DHT22;3081;50.584;7.032;2023-05-14T07:55:05;15.90;99.90
6102;DHT22;3081;50.584;7.032;2023-05-14T07:57:34;16.00;99.90
6102;DHT22;3081;50.584;7.032;2023-05-14T08:00:02;16.20;99.90
6102;DHT22;3081;50.584;7.032;2023-05-14T08:02:29;16.30;99.90
6102;DHT22;3081;50.584;7.032;2023-05-14T08:04:56;16.40;99.90
6102;DHT22;3081;50.584;7.032;2023-05-14T08:07:23;16.60;99.90
6102;DHT22;3081;50.584;7.032;2023-05-14T08:09:50;16.60;99.90
6102;DHT22;3081;50.584;7.032;2023-05-14T08:12:16;16.60;99.90
6102;DHT22;3081;50.584;7.032;2023-05-14T08:14:45;16.60;99.90
6102;DHT22;3081;50.584;7.032;2023-05-14T08:17:12;16.70;99.90
6102;DHT22;3081;50.584;7.032;2023-05-14T08:19:39;16.70;99.90
6102;DHT22;3081;50.584;7.032;2023-05-14T08:22:06;16.80;99.90
6102;DHT22;3081;50.584;7.032;2023-05-14T08:24:32;16.80;99.90
6102;DHT22;3081;50.584;7.032;2023-05-14T08:27:00;16.90;99.90
6102;DHT22;3081;50.584;7.032;2023-05-14T08:29:26;17.00;99.90
6102;DHT22;3081;50.584;7.032;2023-05-14T08:31:55;17.20;99.90
6102;DHT22;3081;50.584;7.032;2023-05-14T08:34:22;17.30;99.90
6102;DHT22;3081;50.584;7.032;2023-05-14T08:36:49;17.30;99.90
6102;DHT22;3081;50.584;7.032;2023-05-14T08:39:16;17.50;99.90
6102;DHT22;3081;50.584;7.032;2023-05-14T08:41:43;17.60;99.90
6102;DHT22;3081;50.584;7.032;2023-05-14T08:44:12;17.60;99.90
6102;DHT22;3081;50.584;7.032;2023-05-14T08:46:40;17.90;99.90
6102;DHT22;3081;50.584;7.032;2023-05-14T08:49:14;18.10;99.90
6102;DHT22;3081;50.584;7.032;2023-05-14T08:51:43;18.30;99.90
6102;DHT22;3081;50.584;7.032;2023-05-14T08:54:12;18.50;99.90
6102;DHT22;3081;50.584;7.032;2023-05-14T08:56:43;18.60;99.90
6102;DHT22;3081;50.584;7.032;2023-05-14T08:59:10;18.70;99.90
6102;DHT22;3081;50.584;7.032;2023-05-14T09:01:41;18.80;99.90
6102;DHT22;3081;50.584;7.032;2023-05-14T09:04:10;18.90;99.90
6102;DHT22;3081;50.584;7.032;2023-05-14T09:06:39;19.10;99.90
6102;DHT22;3081;50.584;7.032;2023-05-14T09:09:08;19.20;99.90
6102;DHT22;3081;50.584;7.032;2023-05-14T09:11:40;19.30;99.90
6102;DHT22;3081;50.584;7.032;2023-05-14T09:14:07;19.30;99.90
6102;DHT22;3081;50.584;7.032;2023-05-14T09:16:34;19.30;99.90
6102;DHT22;3081;50.584;7.032;2023-05-14T09:19:02;19.30;99.90
6102;DHT22;3081;50.584;7.032;2023-05-14T09:21:30;19.60;99.90
6102;DHT22;3081;50.584;7.032;2023-05-14T09:23:57;20.30;99.90
6102;DHT22;3081;50.584;7.032;2023-05-14T09:26:25;21.20;99.90
6102;DHT22;3081;50.584;7.032;2023-05-14T09:28:56;22.10;99.90
6102;DHT22;3081;50.584;7.032;2023-05-14T09:31:26;23.20;99.90
6102;DHT22;3081;50.584;7.032;2023-05-14T09:33:53;24.10;99.90
6102;DHT22;3081;50.584;7.032;2023-05-14T09:36:20;24.80;99.90
6102;DHT22;3081;50.584;7.032;2023-05-14T09:38:48;25.50;99.90
6102;DHT22;3081;50.584;7.032;2023-05-14T09:41:15;26.10;99.90
6102;DHT22;3081;50.584;7.032;2023-05-14T09:43:42;26.60;98.40
6102;DHT22;3081;50.584;7.032;2023-05-14T09:46:09;27.00;95.30
6102;DHT22;3081;50.584;7.032;2023-05-14T09:48:36;27.30;94.00
6102;DHT22;3081;50.584;7.032;2023-05-14T09:51:03;27.60;91.90
6102;DHT22;3081;50.584;7.032;2023-05-14T09:53:32;27.70;90.40
6102;DHT22;3081;50.584;7.032;2023-05-14T09:56:01;27.80;88.30
6102;DHT22;3081;50.584;7.032;2023-05-14T09:58:28;27.90;86.80
6102;DHT22;3081;50.584;7.032;2023-05-14T10:00:56;28.10;86.00
6102;DHT22;3081;50.584;7.032;2023-05-14T10:03:24;28.50;83.60
6102;DHT22;3081;50.584;7.032;2023-05-14T10:05:52;28.80;79.30
6102;DHT22;3081;50.584;7.032;2023-05-14T10:08:26;29.20;77.90
6102;DHT22;3081;50.584;7.032;2023-05-14T10:10:54;29.30;75.90
6102;DHT22;3081;50.584;7.032;2023-05-14T10:13:26;29.10;75.70
6102;DHT22;3081;50.584;7.032;2023-05-14T10:16:00;29.20;75.80
6102;DHT22;3081;50.584;7.032;2023-05-14T10:18:35;29.40;73.10
6102;DHT22;3081;50.584;7.032;2023-05-14T10:21:06;29.50;72.00
6102;DHT22;3081;50.584;7.032;2023-05-14T10:23:33;29.70;70.00
6102;DHT22;3081;50.584;7.032;2023-05-14T10:26:03;29.90;70.40
6102;DHT22;3081;50.584;7.032;2023-05-14T10:28:31;30.40;69.00
6102;DHT22;3081;50.584;7.032;2023-05-14T10:30:58;30.80;67.90
6102;DHT22;3081;50.584;7.032;2023-05-14T10:33:26;30.80;67.50
6102;DHT22;3081;50.584;7.032;2023-05-14T10:35:59;30.50;66.60
6102;DHT22;3081;50.584;7.032;2023-05-14T10:38:27;30.10;67.60
6102;DHT22;3081;50.584;7.032;2023-05-14T10:41:02;30.30;65.60
6102;DHT22;3081;50.584;7.032;2023-05-14T10:43:36;30.50;65.30
6102;DHT22;3081;50.584;7.032;2023-05-14T10:46:04;30.70;63.80
6102;DHT22;3081;50.584;7.032;2023-05-14T10:48:32;29.90;62.60
6102;DHT22;3081;50.584;7.032;2023-05-14T10:51:00;28.40;68.20
6102;DHT22;3081;50.584;7.032;2023-05-14T10:53:31;28.10;69.90
6102;DHT22;3081;50.584;7.032;2023-05-14T10:56:02;27.80;69.30
6102;DHT22;3081;50.584;7.032;2023-05-14T10:58:34;28.10;70.50
6102;DHT22;3081;50.584;7.032;2023-05-14T11:01:01;28.90;66.00
6102;DHT22;3081;50.584;7.032;2023-05-14T11:03:30;29.40;67.90
6102;DHT22;3081;50.584;7.032;2023-05-14T11:05:59;29.90;65.00
6102;DHT22;3081;50.584;7.032;2023-05-14T11:08:28;29.90;63.70
6102;DHT22;3081;50.584;7.032;2023-05-14T11:10:56;30.20;63.80
6102;DHT22;3081;50.584;7.032;2023-05-14T11:13:25;30.70;63.20
6102;DHT22;3081;50.584;7.032;2023-05-14T11:15:54;29.90;61.50
6102;DHT22;3081;50.584;7.032;2023-05-14T11:18:27;29.30;63.80
6102;DHT22;3081;50.584;7.032;2023-05-14T11:20:57;29.10;65.00
6102;DHT22;3081;50.584;7.032;2023-05-14T11:23:24;28.40;65.10
6102;DHT22;3081;50.584;7.032;2023-05-14T11:25:52;27.90;66.00
6102;DHT22;3081;50.584;7.032;2023-05-14T11:28:19;27.60;66.20
6102;DHT22;3081;50.584;7.032;2023-05-14T11:30:47;27.90;66.50
6102;DHT22;3081;50.584;7.032;2023-05-14T11:33:16;28.60;65.80
6102;DHT22;3081;50.584;7.032;2023-05-14T11:35:44;29.20;63.80
6102;DHT22;3081;50.584;7.032;2023-05-14T11:38:15;29.90;62.60
6102;DHT22;3081;50.584;7.032;2023-05-14T11:40:42;30.30;60.20
6102;DHT22;3081;50.584;7.032;2023-05-14T11:43:16;30.80;58.20
6102;DHT22;3081;50.584;7.032;2023-05-14T11:45:48;30.60;59.10
6102;DHT22;3081;50.584;7.032;2023-05-14T11:48:17;30.40;59.30
6102;DHT22;3081;50.584;7.032;2023-05-14T11:50:45;29.80;60.20
6102;DHT22;3081;50.584;7.032;2023-05-14T11:53:16;28.60;61.00
6102;DHT22;3081;50.584;7.032;2023-05-14T11:55:43;27.80;62.00
6102;DHT22;3081;50.584;7.032;2023-05-14T11:58:11;27.40;65.20
6102;DHT22;3081;50.584;7.032;2023-05-14T12:00:38;27.00;65.30
6102;DHT22;3081;50.584;7.032;2023-05-14T12:03:06;26.60;66.40
6102;DHT22;3081;50.584;7.032;2023-05-14T12:05:38;26.30;66.50
6102;DHT22;3081;50.584;7.032;2023-05-14T12:08:19;26.00;66.00
6102;DHT22;3081;50.584;7.032;2023-05-14T12:10:46;25.70;67.30
6102;DHT22;3081;50.584;7.032;2023-05-14T12:13:14;25.50;67.40
6102;DHT22;3081;50.584;7.032;2023-05-14T12:15:44;25.30;68.20
6102;DHT22;3081;50.584;7.032;2023-05-14T12:18:11;25.20;68.70
6102;DHT22;3081;50.584;7.032;2023-05-14T12:20:45;25.20;67.30
6102;DHT22;3081;50.584;7.032;2023-05-14T12:23:12;25.70;68.40
6102;DHT22;3081;50.584;7.032;2023-05-14T12:25:39;27.10;67.10
6102;DHT22;3081;50.584;7.032;2023-05-14T12:28:13;28.00;63.10
6102;DHT22;3081;50.584;7.032;2023-05-14T12:30:40;27.80;63.00
6102;DHT22;3081;50.584;7.032;2023-05-14T12:33:07;27.30;63.10
6102;DHT22;3081;50.584;7.032;2023-05-14T12:35:34;26.90;63.70
6102;DHT22;3081;50.584;7.032;2023-05-14T12:38:03;27.00;63.90
6102;DHT22;3081;50.584;7.032;2023-05-14T12:40:30;27.50;62.50
6102;DHT22;3081;50.584;7.032;2023-05-14T12:42:56;27.70;61.80
6102;DHT22;3081;50.584;7.032;2023-05-14T12:45:23;27.70;61.70
6102;DHT22;3081;50.584;7.032;2023-05-14T12:47:50;27.50;60.60
6102;DHT22;3081;50.584;7.032;2023-05-14T12:50:17;27.40;60.80
6102;DHT22;3081;50.584;7.032;2023-05-14T12:52:44;27.20;62.70
6102;DHT22;3081;50.584;7.032;2023-05-14T12:55:13;26.90;63.00
6102;DHT22;3081;50.584;7.032;2023-05-14T12:57:40;26.70;64.40
6102;DHT22;3081;50.584;7.032;2023-05-14T13:00:08;26.60;65.10
6102;DHT22;3081;50.584;7.032;2023-05-14T13:02:36;26.70;64.00
6102;DHT22;3081;50.584;7.032;2023-05-14T13:05:03;27.10;64.30
6102;DHT22;3081;50.584;7.032;2023-05-14T13:07:30;27.50;65.00
6102;DHT22;3081;50.584;7.032;2023-05-14T13:09:57;28.20;64.60
6102;DHT22;3081;50.584;7.032;2023-05-14T13:12:26;28.40;62.90
6102;DHT22;3081;50.584;7.032;2023-05-14T13:14:53;28.00;64.90
6102;DHT22;3081;50.584;7.032;2023-05-14T13:17:20;27.70;63.80
6102;DHT22;3081;50.584;7.032;2023-05-14T13:19:47;27.40;63.70
6102;DHT22;3081;50.584;7.032;2023-05-14T13:22:14;26.70;63.80
6102;DHT22;3081;50.584;7.032;2023-05-14T13:24:43;26.10;67.20
6102;DHT22;3081;50.584;7.032;2023-05-14T13:27:10;26.10;66.50
6102;DHT22;3081;50.584;7.032;2023-05-14T13:29:39;26.30;67.10
6102;DHT22;3081;50.584;7.032;2023-05-14T13:32:06;26.60;66.70
6102;DHT22;3081;50.584;7.032;2023-05-14T13:34:33;26.40;68.80
6102;DHT22;3081;50.584;7.032;2023-05-14T13:37:00;25.50;72.10
6102;DHT22;3081;50.584;7.032;2023-05-14T13:39:28;24.50;73.80
6102;DHT22;3081;50.584;7.032;2023-05-14T13:41:55;23.70;76.10
6102;DHT22;3081;50.584;7.032;2023-05-14T13:44:22;23.10;77.20
6102;DHT22;3081;50.584;7.032;2023-05-14T13:46:50;22.60;77.50
6102;DHT22;3081;50.584;7.032;2023-05-14T13:49:17;22.30;79.30
6102;DHT22;3081;50.584;7.032;2023-05-14T13:51:44;22.40;78.90
6102;DHT22;3081;50.584;7.032;2023-05-14T13:54:11;22.70;79.50
6102;DHT22;3081;50.584;7.032;2023-05-14T13:56:38;23.10;77.60
6102;DHT22;3081;50.584;7.032;2023-05-14T13:59:05;23.60;76.80
6102;DHT22;3081;50.584;7.032;2023-05-14T14:01:32;24.60;75.20
6102;DHT22;3081;50.584;7.032;2023-05-14T14:04:01;27.10;73.30
6102;DHT22;3081;50.584;7.032;2023-05-14T14:06:30;30.10;63.80
6102;DHT22;3081;50.584;7.032;2023-05-14T14:08:57;32.40;59.40
6102;DHT22;3081;50.584;7.032;2023-05-14T14:11:24;34.20;58.60
6102;DHT22;3081;50.584;7.032;2023-05-14T14:13:50;35.50;53.90
6102;DHT22;3081;50.584;7.032;2023-05-14T14:16:17;35.90;54.80
6102;DHT22;3081;50.584;7.032;2023-05-14T14:18:44;36.80;52.40
6102;DHT22;3081;50.584;7.032;2023-05-14T14:21:13;37.30;49.60
6102;DHT22;3081;50.584;7.032;2023-05-14T14:23:42;36.70;48.60
6102;DHT22;3081;50.584;7.032;2023-05-14T14:26:10;35.00;49.90
6102;DHT22;3081;50.584;7.032;2023-05-14T14:28:36;34.10;52.00
6102;DHT22;3081;50.584;7.032;2023-05-14T14:31:04;33.70;52.70
6102;DHT22;3081;50.584;7.032;2023-05-14T14:33:31;32.20;52.70
6102;DHT22;3081;50.584;7.032;2023-05-14T14:35:58;30.30;55.10
6102;DHT22;3081;50.584;7.032;2023-05-14T14:38:26;28.80;57.00
6102;DHT22;3081;50.584;7.032;2023-05-14T14:40:53;27.90;59.30
6102;DHT22;3081;50.584;7.032;2023-05-14T14:43:20;28.10;61.10
6102;DHT22;3081;50.584;7.032;2023-05-14T14:45:47;29.90;59.10
6102;DHT22;3081;50.584;7.032;2023-05-14T14:48:27;31.30;56.40
6102;DHT22;3081;50.584;7.032;2023-05-14T14:50:56;33.30;55.50
6102;DHT22;3081;50.584;7.032;2023-05-14T14:53:23;35.40;52.70
6102;DHT22;3081;50.584;7.032;2023-05-14T14:55:52;36.40;48.80
6102;DHT22;3081;50.584;7.032;2023-05-14T14:58:19;36.90;47.80
6102;DHT22;3081;50.584;7.032;2023-05-14T15:00:47;37.00;47.30
6102;DHT22;3081;50.584;7.032;2023-05-14T15:03:14;36.50;47.60
6102;DHT22;3081;50.584;7.032;2023-05-14T15:05:41;36.70;48.30
6102;DHT22;3081;50.584;7.032;2023-05-14T15:08:08;37.50;46.80
6102;DHT22;3081;50.584;7.032;2023-05-14T15:10:35;38.10;45.80
6102;DHT22;3081;50.584;7.032;2023-05-14T15:13:05;38.60;45.10
6102;DHT22;3081;50.584;7.032;2023-05-14T15:15:32;38.80;45.30
6102;DHT22;3081;50.584;7.032;2023-05-14T15:18:00;38.80;44.00
6102;DHT22;3081;50.584;7.032;2023-05-14T15:20:27;38.60;43.80
6102;DHT22;3081;50.584;7.032;2023-05-14T15:22:54;38.80;44.10
6102;DHT22;3081;50.584;7.032;2023-05-14T15:25:21;39.00;44.60
6102;DHT22;3081;50.584;7.032;2023-05-14T15:27:49;39.10;42.30
6102;DHT22;3081;50.584;7.032;2023-05-14T15:30:17;39.00;43.50
6102;DHT22;3081;50.584;7.032;2023-05-14T15:32:44;38.60;41.90
6102;DHT22;3081;50.584;7.032;2023-05-14T15:35:12;38.30;42.50
6102;DHT22;3081;50.584;7.032;2023-05-14T15:37:39;38.00;42.70
6102;DHT22;3081;50.584;7.032;2023-05-14T15:40:07;38.80;42.60
6102;DHT22;3081;50.584;7.032;2023-05-14T15:42:35;40.00;41.80
6102;DHT22;3081;50.584;7.032;2023-05-14T15:45:02;41.10;40.50
6102;DHT22;3081;50.584;7.032;2023-05-14T15:47:31;40.30;40.70
6102;DHT22;3081;50.584;7.032;2023-05-14T15:49:58;41.40;39.60
6102;DHT22;3081;50.584;7.032;2023-05-14T15:52:25;41.60;38.60
6102;DHT22;3081;50.584;7.032;2023-05-14T15:54:52;41.40;40.00
6102;DHT22;3081;50.584;7.032;2023-05-14T15:57:20;39.50;40.00
6102;DHT22;3081;50.584;7.032;2023-05-14T15:59:47;36.60;41.40
6102;DHT22;3081;50.584;7.032;2023-05-14T16:02:14;33.60;45.40
6102;DHT22;3081;50.584;7.032;2023-05-14T16:04:43;31.30;47.60
6102;DHT22;3081;50.584;7.032;2023-05-14T16:07:10;29.80;49.60